Main page
METAR-TAF:

METAR-TAF

Airports :

Larnaca International Airport

Larnaca, Cyprus

latitude: 34-53N, longitude: 033-38E, elevation: 2 m

Current weather observation

The report was made 21 minutes ago, at 05:30 UTC
Wind 4 kt from the East/Southeast, varying between East/Northeast and Southeast
Temperature 33°C
Humidity 28%
Pressure 1005 hPa
Visibility 10 km or more
no clouds below 1500 m and no cumulonimbus

METAR: LCLK 170530Z 11004KT 070V140 CAVOK 33/12 Q1005 NOSIG

Time: 08:51 (05:51 UTC)

Forecast

The report was made 21 minutes ago, at 05:30 UTC
Forecast valid from 17 at 06 UTC to 18 at 06 UTC
Wind 8 kt from the South/Southeast
Visibility 10 km or more
Few clouds at a height of 3000 ft
Becoming
from 17 at 08 UTC to 17 at 11 UTC
Wind 16 kt from the South/Southwest
Becoming
from 17 at 16 UTC to 17 at 20 UTC
Wind 6 kt from the Northwest

TAF: LCLK 170530Z 1706/1806 16008KT 9999 FEW030 BECMG 1708/1711 21016KT BECMG 1716/1720 31006KT

Weather observations and forecasts of more than 4000 airports (METAR and TAF reports).

The available stations are represented by yellow and red dots on the map.

Hover mouse over dot to see the name of the station.

Then click to see weather observations and forecasts.

To change the map : click on the green buttons with a black cross to zoom in, on the green button with a dash to zoom out, or on the green arrows for adjacent maps.


METAR-TAF: